createdAt,value
2016-09-19T00:00:20.257Z,19.34
2016-09-19T00:01:20.239Z,19.56
2016-09-19T00:02:20.551Z,19.52
2016-09-19T00:03:20.533Z,19.38
2016-09-19T00:04:19.889Z,19.3
2016-09-19T00:05:20.181Z,19.31
2016-09-19T00:06:20.496Z,19.21
2016-09-19T00:07:20.476Z,19.33
2016-09-19T00:08:20.231Z,19.25
2016-09-19T00:09:20.457Z,19.56
2016-09-19T00:10:20.127Z,19.46
2016-09-19T00:11:20.414Z,19.48
2016-09-19T00:12:20.418Z,19.36
2016-09-19T00:13:20.382Z,19.41
2016-09-19T00:14:20.375Z,19.44
2016-09-19T00:15:20.049Z,19.37
2016-09-19T00:16:20.027Z,19.19
2016-09-19T00:17:20.005Z,19.18
2016-09-19T00:18:20.319Z,19.21
2016-09-19T00:19:20.316Z,19.07
2016-09-19T00:20:20.289Z,19.06
2016-09-19T00:21:19.956Z,19.15
2016-09-19T00:22:20.048Z,19.02
2016-09-19T00:23:20.267Z,19.25
2016-09-19T00:24:20.235Z,19.21
2016-09-19T00:25:20.216Z,19.15
2016-09-19T00:26:20.217Z,19.15
2016-09-19T00:27:20.184Z,19.16
2016-09-19T00:28:19.865Z,19.19
2016-09-19T00:29:20.162Z,19.22
2016-09-19T00:30:19.817Z,19.23
2016-09-19T00:31:20.142Z,19.25
2016-09-19T00:32:19.810Z,19.18
2016-09-19T00:33:20.105Z,19.06
2016-09-19T00:34:20.157Z,19.06
2016-09-19T00:35:19.450Z,18.85
2016-09-19T00:36:20.180Z,18.97
2016-09-19T00:37:19.740Z,19.06
2016-09-19T00:38:19.720Z,19.11
2016-09-19T00:39:20.027Z,19.25
2016-09-19T00:40:19.377Z,19.22
2016-09-19T00:41:20.029Z,19.21
2016-09-19T00:42:19.801Z,19.23
2016-09-19T00:43:19.976Z,19.07
2016-09-19T00:44:19.643Z,19.02
2016-09-19T00:45:19.307Z,18.99
2016-09-19T00:46:19.937Z,19
2016-09-19T00:47:19.608Z,18.85
2016-09-19T00:48:19.982Z,19.04
2016-09-19T00:49:19.560Z,19
2016-09-19T00:50:19.930Z,19.08
2016-09-19T00:51:19.857Z,19.36
2016-09-19T00:52:19.540Z,19.26
2016-09-19T00:53:19.836Z,19.26
2016-09-19T00:54:19.505Z,19.18
2016-09-19T00:55:19.799Z,19.15
2016-09-19T00:56:19.796Z,19.14
2016-09-19T00:57:19.451Z,19.22
2016-09-19T00:58:19.442Z,19.34
2016-09-19T00:59:19.429Z,19.33
2016-09-19T01:00:19.736Z,19.33
2016-09-19T01:01:19.404Z,19.22
2016-09-19T01:02:19.374Z,19.33
2016-09-19T01:03:19.060Z,19.22
2016-09-19T01:04:19.375Z,19.16
2016-09-19T01:05:19.666Z,19.22
2016-09-19T01:06:19.653Z,19.16
2016-09-19T01:07:19.310Z,19.25
2016-09-19T01:08:19.620Z,19.12
2016-09-19T01:09:19.287Z,19.16
2016-09-19T01:10:19.277Z,19.08
2016-09-19T01:11:19.589Z,19.02
2016-09-19T01:12:19.250Z,19.02
2016-09-19T01:13:19.557Z,18.95
2016-09-19T01:14:19.204Z,18.96
2016-09-19T01:15:18.877Z,18.85
2016-09-19T01:16:19.524Z,18.85
2016-09-19T01:17:19.496Z,18.85
2016-09-19T01:18:19.167Z,18.87
2016-09-19T01:19:19.146Z,18.88
2016-09-19T01:20:19.458Z,18.88
2016-09-19T01:21:19.106Z,18.96
2016-09-19T01:22:19.097Z,18.88
2016-09-19T01:23:19.417Z,19.08
2016-09-19T01:24:19.403Z,19.34
2016-09-19T01:25:19.082Z,19.25
2016-09-19T01:26:19.047Z,19.19
2016-09-19T01:27:19.361Z,19.16
2016-09-19T01:28:19.017Z,19.11
2016-09-19T01:29:19.330Z,19.19
2016-09-19T01:30:18.970Z,19.15
2016-09-19T01:31:18.990Z,19.15
2016-09-19T01:32:18.952Z,19.04
2016-09-19T01:33:19.259Z,18.92
2016-09-19T01:34:18.939Z,18.95
2016-09-19T01:35:18.908Z,18.9
2016-09-19T01:36:18.921Z,18.97
2016-09-19T01:37:18.882Z,19.19
2016-09-19T01:38:18.878Z,19.16
2016-09-19T01:39:18.534Z,18.99
2016-09-19T01:40:18.522Z,18.97
2016-09-19T01:41:18.830Z,18.96
2016-09-19T01:42:19.139Z,18.93
2016-09-19T01:43:18.799Z,18.87
2016-09-19T01:44:18.466Z,18.87
2016-09-19T01:45:19.083Z,18.88
2016-09-19T01:46:19.075Z,18.7
2016-09-19T01:47:19.061Z,18.82
2016-09-19T01:48:19.057Z,18.87
2016-09-19T01:49:18.731Z,18.87
2016-09-19T01:50:19.027Z,18.7
2016-09-19T01:51:18.690Z,18.7
2016-09-19T01:52:18.670Z,18.95
2016-09-19T01:53:18.980Z,18.95
2016-09-19T01:54:18.791Z,18.99
2016-09-19T01:55:18.641Z,19.11
2016-09-19T01:56:18.952Z,19.02
2016-09-19T01:57:18.947Z,18.84
2016-09-19T01:58:18.598Z,18.9
2016-09-19T01:59:18.907Z,18.85
2016-09-19T02:00:18.556Z,18.88
2016-09-19T02:01:18.223Z,18.84
2016-09-19T02:02:18.853Z,19.21
2016-09-19T02:03:18.527Z,19.22
2016-09-19T02:04:18.235Z,19.14
2016-09-19T02:05:18.811Z,19.08
2016-09-19T02:06:18.792Z,18.96
2016-09-19T02:07:18.792Z,19.36
2016-09-19T02:08:18.771Z,19.08
2016-09-19T02:09:18.440Z,19.12
2016-09-19T02:10:18.751Z,18.85
2016-09-19T02:11:18.411Z,18.85
2016-09-19T02:12:18.072Z,18.95
2016-09-19T02:13:18.856Z,18.87
2016-09-19T02:14:18.671Z,18.74
2016-09-19T02:15:18.357Z,18.82
2016-09-19T02:16:18.350Z,18.9
2016-09-19T02:17:18.311Z,18.87
2016-09-19T02:18:18.626Z,18.88
2016-09-19T02:19:18.620Z,18.81
2016-09-19T02:20:18.596Z,18.8
2016-09-19T02:21:17.932Z,18.82
2016-09-19T02:22:18.241Z,18.77
2016-09-19T02:23:17.913Z,18.8
2016-09-19T02:24:18.540Z,18.74
2016-09-19T02:25:18.520Z,18.62
2016-09-19T02:26:18.624Z,18.66
2016-09-19T02:27:18.180Z,18.6
2016-09-19T02:28:18.489Z,18.69
2016-09-19T02:29:18.164Z,18.74
2016-09-19T02:30:18.246Z,18.73
2016-09-19T02:31:18.488Z,18.85
2016-09-19T02:32:18.174Z,18.7
2016-09-19T02:33:17.780Z,18.73
2016-09-19T02:34:18.076Z,18.62
2016-09-19T02:35:18.406Z,18.63
2016-09-19T02:36:18.377Z,18.81
2016-09-19T02:37:18.039Z,18.67
2016-09-19T02:38:18.385Z,18.67
2016-09-19T02:39:18.327Z,18.67
2016-09-19T02:40:18.360Z,18.6
2016-09-19T02:41:17.964Z,18.62
2016-09-19T02:42:17.967Z,18.78
2016-09-19T02:43:18.283Z,18.73
2016-09-19T02:44:18.258Z,18.74
2016-09-19T02:45:17.903Z,18.77
2016-09-19T02:46:18.223Z,18.7
2016-09-19T02:47:17.890Z,18.8
2016-09-19T02:48:17.866Z,18.62
2016-09-19T02:49:18.219Z,18.69
2016-09-19T02:50:17.846Z,18.6
2016-09-19T02:51:17.612Z,18.58
2016-09-19T02:52:18.148Z,18.51
2016-09-19T02:53:17.803Z,18.48
2016-09-19T02:54:18.108Z,18.4
2016-09-19T02:55:18.165Z,18.55
2016-09-19T02:56:18.081Z,18.62
2016-09-19T02:57:17.746Z,18.63
2016-09-19T02:58:17.743Z,18.6
2016-09-19T02:59:17.713Z,18.69
2016-09-19T03:00:17.711Z,18.52
2016-09-19T03:01:17.352Z,18.45
2016-09-19T03:02:17.664Z,18.48
2016-09-19T03:03:17.982Z,18.48
2016-09-19T03:04:17.967Z,18.41
2016-09-19T03:05:17.943Z,18.35
2016-09-19T03:06:17.614Z,18.48
2016-09-19T03:07:17.275Z,18.44
2016-09-19T03:08:17.905Z,18.41
2016-09-19T03:09:17.889Z,18.4
2016-09-19T03:10:17.556Z,18.45
2016-09-19T03:11:17.849Z,18.51
2016-09-19T03:12:17.196Z,18.51
2016-09-19T03:13:17.834Z,18.44
2016-09-19T03:14:17.514Z,18.42
2016-09-19T03:15:17.803Z,18.48
2016-09-19T03:16:17.146Z,18.47
2016-09-19T03:17:17.775Z,18.48
2016-09-19T03:18:17.780Z,18.5
2016-09-19T03:19:17.736Z,18.47
2016-09-19T03:20:17.408Z,18.52
2016-09-19T03:21:17.393Z,18.52
2016-09-19T03:22:17.703Z,18.59
2016-09-19T03:23:17.681Z,18.52
2016-09-19T03:24:17.356Z,18.6
2016-09-19T03:25:17.340Z,18.51
2016-09-19T03:26:17.330Z,18.47
2016-09-19T03:27:17.612Z,18.45
2016-09-19T03:28:17.624Z,18.45
2016-09-19T03:29:17.596Z,18.44
2016-09-19T03:30:17.269Z,18.51
2016-09-19T03:31:17.571Z,18.56
2016-09-19T03:32:17.566Z,18.51
2016-09-19T03:33:17.545Z,18.44
2016-09-19T03:34:17.215Z,18.41
2016-09-19T03:35:17.502Z,18.41
2016-09-19T03:36:17.493Z,18.4
2016-09-19T03:37:17.480Z,18.4
2016-09-19T03:38:17.465Z,18.33
2016-09-19T03:39:16.806Z,18.56
2016-09-19T03:40:17.455Z,18.63
2016-09-19T03:41:17.415Z,18.69
2016-09-19T03:42:17.404Z,18.65
2016-09-19T03:43:17.065Z,18.5
2016-09-19T03:44:17.377Z,18.62
2016-09-19T03:45:17.044Z,18.56
2016-09-19T03:46:17.344Z,18.62
2016-09-19T03:47:17.330Z,18.51
2016-09-19T03:48:17.315Z,18.55
2016-09-19T03:49:17.300Z,18.47
2016-09-19T03:50:17.296Z,18.41
2016-09-19T03:51:17.271Z,18.42
2016-09-19T03:52:17.260Z,18.42
2016-09-19T03:53:17.242Z,18.51
2016-09-19T03:54:17.232Z,18.41
2016-09-19T03:55:16.575Z,18.38
2016-09-19T03:56:16.553Z,18.35
2016-09-19T03:57:16.869Z,18.29
2016-09-19T03:58:16.545Z,18.11
2016-09-19T03:59:16.602Z,18.15
2016-09-19T04:00:16.826Z,18.2
2016-09-19T04:01:16.809Z,18.25
2016-09-19T04:02:16.810Z,18.29
2016-09-19T04:03:16.869Z,18.41
2016-09-19T04:04:16.776Z,18.23
2016-09-19T04:05:17.080Z,18.22
2016-09-19T04:06:16.429Z,18.25
2016-09-19T04:07:17.120Z,18.38
2016-09-19T04:08:16.707Z,18.42
2016-09-19T04:09:17.019Z,18.22
2016-09-19T04:10:16.679Z,18.48
2016-09-19T04:11:16.987Z,18.41
2016-09-19T04:12:16.649Z,18.52
2016-09-19T04:13:16.962Z,18.41
2016-09-19T04:14:16.622Z,18.5
2016-09-19T04:15:16.343Z,18.44
2016-09-19T04:16:16.920Z,18.44
2016-09-19T04:17:16.579Z,18.41
2016-09-19T04:18:16.892Z,18.4
2016-09-19T04:19:16.586Z,18.47
2016-09-19T04:20:16.850Z,18.45
2016-09-19T04:21:16.841Z,18.42
2016-09-19T04:22:16.829Z,18.41
2016-09-19T04:23:16.555Z,18.4
2016-09-19T04:24:16.154Z,18.4
2016-09-19T04:25:16.473Z,18.45
2016-09-19T04:26:16.779Z,18.38
2016-09-19T04:27:16.499Z,18.47
2016-09-19T04:28:16.800Z,18.75
2016-09-19T04:29:16.397Z,18.78
2016-09-19T04:30:16.720Z,18.88
2016-09-19T04:31:16.080Z,18.7
2016-09-19T04:32:16.689Z,18.56
2016-09-19T04:33:16.077Z,18.55
2016-09-19T04:34:16.026Z,18.41
2016-09-19T04:35:16.680Z,18.44
2016-09-19T04:36:16.309Z,18.44
2016-09-19T04:37:16.340Z,18.35
2016-09-19T04:38:16.672Z,18.42
2016-09-19T04:39:16.296Z,18.4
2016-09-19T04:40:16.559Z,18.32
2016-09-19T04:41:16.225Z,18.19
2016-09-19T04:42:16.549Z,18.3
2016-09-19T04:43:16.527Z,18.25
2016-09-19T04:44:16.509Z,18.2
2016-09-19T04:45:16.504Z,18.29
2016-09-19T04:46:16.474Z,18.19
2016-09-19T04:47:16.136Z,18.35
2016-09-19T04:48:16.127Z,18.93
2016-09-19T04:49:16.117Z,18.87
2016-09-19T04:50:16.413Z,18.75
2016-09-19T04:51:16.071Z,18.7
2016-09-19T04:52:16.403Z,18.6
2016-09-19T04:53:16.049Z,18.66
2016-09-19T04:54:16.344Z,18.47
2016-09-19T04:55:16.052Z,18.44
2016-09-19T04:56:16.006Z,18.88
2016-09-19T04:57:16.310Z,18.82
2016-09-19T04:58:15.984Z,18.67
2016-09-19T04:59:15.988Z,18.38
2016-09-19T05:00:15.948Z,18.37
2016-09-19T05:01:16.270Z,18.42
2016-09-19T05:02:15.595Z,18.33
2016-09-19T05:03:15.899Z,18.37
2016-09-19T05:04:15.702Z,18.38
2016-09-19T05:05:16.199Z,18.78
2016-09-19T05:06:15.872Z,18.67
2016-09-19T05:07:15.856Z,18.56
2016-09-19T05:08:15.827Z,18.77
2016-09-19T05:09:15.863Z,18.74
2016-09-19T05:10:15.809Z,18.84
2016-09-19T05:11:15.777Z,18.69
2016-09-19T05:12:15.774Z,18.45
2016-09-19T05:13:15.765Z,18.4
2016-09-19T05:14:15.736Z,18.35
2016-09-19T05:15:16.044Z,18.45
2016-09-19T05:16:16.021Z,18.41
2016-09-19T05:17:16.026Z,18.47
2016-09-19T05:18:15.680Z,18.41
2016-09-19T05:19:15.667Z,18.42
2016-09-19T05:20:15.653Z,18.25
2016-09-19T05:21:15.953Z,18.27
2016-09-19T05:22:15.940Z,18.26
2016-09-19T05:23:15.940Z,18.22
2016-09-19T05:24:15.598Z,18.14
2016-09-19T05:25:15.587Z,18.19
2016-09-19T05:26:16.196Z,18.67
2016-09-19T05:27:15.552Z,18.62
2016-09-19T05:28:15.204Z,18.66
2016-09-19T05:29:15.524Z,18.87
2016-09-19T05:30:15.490Z,18.88
2016-09-19T05:31:15.169Z,18.87
2016-09-19T05:32:15.780Z,18.7
2016-09-19T05:33:15.457Z,18.63
2016-09-19T05:34:15.123Z,18.63
2016-09-19T05:35:15.440Z,18.47
2016-09-19T05:36:15.416Z,18.38
2016-09-19T05:37:15.071Z,18.48
2016-09-19T05:38:15.060Z,18.37
2016-09-19T05:39:15.366Z,18.45
2016-09-19T05:40:15.351Z,18.47
2016-09-19T05:41:15.336Z,18.44
2016-09-19T05:42:15.676Z,18.56
2016-09-19T05:43:15.557Z,18.38
2016-09-19T05:44:15.296Z,18.41
2016-09-19T05:45:15.621Z,18.48
2016-09-19T05:46:15.603Z,18.37
2016-09-19T05:47:15.566Z,19.02
2016-09-19T05:48:15.237Z,19.07
2016-09-19T05:49:15.547Z,18.82
2016-09-19T05:50:15.522Z,19.16
2016-09-19T05:51:15.527Z,18.82
2016-09-19T05:52:15.498Z,18.51
2016-09-19T05:53:14.839Z,18.59
2016-09-19T05:54:15.149Z,18.48
2016-09-19T05:55:15.137Z,19
2016-09-19T05:56:15.113Z,19.23
2016-09-19T05:57:15.099Z,19.21
2016-09-19T05:58:15.109Z,18.84
2016-09-19T05:59:15.394Z,18.51
2016-09-19T06:00:15.371Z,18.35
2016-09-19T06:01:15.047Z,18.35
2016-09-19T06:02:15.347Z,18.45
2016-09-19T06:03:15.338Z,18.3
2016-09-19T06:04:15.007Z,18.19
2016-09-19T06:05:14.669Z,18.11
2016-09-19T06:06:14.978Z,18.38
2016-09-19T06:07:14.947Z,18.5
2016-09-19T06:08:15.327Z,18.47
2016-09-19T06:09:15.250Z,18.41
2016-09-19T06:10:15.236Z,18.48
2016-09-19T06:11:14.919Z,18.29
2016-09-19T06:12:14.926Z,18.47
2016-09-19T06:13:15.211Z,18.63
2016-09-19T06:14:14.907Z,19.26
2016-09-19T06:15:14.845Z,19.21
2016-09-19T06:16:14.536Z,18.95
2016-09-19T06:17:14.800Z,18.88
2016-09-19T06:18:14.476Z,19.22
2016-09-19T06:19:15.089Z,19.19
2016-09-19T06:20:14.499Z,18.82
2016-09-19T06:21:14.753Z,18.74
2016-09-19T06:22:15.052Z,18.7
2016-09-19T06:23:14.720Z,18.65
2016-09-19T06:24:15.038Z,18.47
2016-09-19T06:25:14.705Z,18.52
2016-09-19T06:26:15.016Z,18.5
2016-09-19T06:27:14.974Z,19.06
2016-09-19T06:28:14.658Z,19.07
2016-09-19T06:29:14.306Z,19.46
2016-09-19T06:30:14.932Z,19.33
2016-09-19T06:31:14.600Z,19.18
2016-09-19T06:32:14.580Z,19.11
2016-09-19T06:33:14.576Z,19.37
2016-09-19T06:34:14.248Z,19.21
2016-09-19T06:35:14.936Z,19.07
2016-09-19T06:36:14.583Z,18.92
2016-09-19T06:37:14.505Z,18.93
2016-09-19T06:38:14.515Z,18.69
2016-09-19T06:39:14.856Z,18.62
2016-09-19T06:40:14.476Z,18.69
2016-09-19T06:41:14.464Z,18.74
2016-09-19T06:42:14.777Z,18.9
2016-09-19T06:43:14.429Z,18.82
2016-09-19T06:44:14.409Z,18.95
2016-09-19T06:45:14.396Z,18.77
2016-09-19T06:46:14.067Z,18.95
2016-09-19T06:47:14.381Z,18.97
2016-09-19T06:48:14.679Z,18.97
2016-09-19T06:49:14.345Z,19.31
2016-09-19T06:50:14.336Z,20.32
2016-09-19T06:51:14.650Z,21.68
2016-09-19T06:52:13.971Z,22.4
2016-09-19T06:53:14.282Z,22.77
2016-09-19T06:54:14.283Z,23.25
2016-09-19T06:55:14.268Z,23.84
2016-09-19T06:56:14.331Z,24.12
2016-09-19T06:57:14.554Z,24.27
2016-09-19T06:58:14.256Z,24.59
2016-09-19T06:59:14.219Z,24.85
2016-09-19T07:00:13.881Z,25.08
2016-09-19T07:01:14.207Z,25.02
2016-09-19T07:02:14.197Z,24.85
2016-09-19T07:03:14.506Z,24.57
2016-09-19T07:04:14.476Z,24.27
2016-09-19T07:05:13.846Z,24.25
2016-09-19T07:06:14.465Z,24.58
2016-09-19T07:07:14.456Z,25
2016-09-19T07:08:14.172Z,25.44
2016-09-19T07:09:14.117Z,25.86
2016-09-19T07:10:14.103Z,25.94
2016-09-19T07:11:14.195Z,26.08
2016-09-19T07:12:14.504Z,26.15
2016-09-19T07:13:14.217Z,26.22
2016-09-19T07:14:13.745Z,25.92
2016-09-19T07:15:13.726Z,25.96
2016-09-19T07:16:14.485Z,25.71
2016-09-19T07:17:14.352Z,25.89
2016-09-19T07:18:14.031Z,25.84
2016-09-19T07:19:14.355Z,25.74
2016-09-19T07:20:14.050Z,25.76
2016-09-19T07:21:14.307Z,25.96
2016-09-19T07:22:14.311Z,25.81
2016-09-19T07:23:14.305Z,25.7
2016-09-19T07:24:14.083Z,25.52
2016-09-19T07:25:14.375Z,25.81
2016-09-19T07:26:14.325Z,25.77
2016-09-19T07:27:13.944Z,25.51
2016-09-19T07:28:13.938Z,25.27
2016-09-19T07:29:14.239Z,25.19
2016-09-19T07:30:13.922Z,24.85
2016-09-19T07:31:13.578Z,25.03
2016-09-19T07:32:13.891Z,25.07
2016-09-19T07:33:13.890Z,25.08
2016-09-19T07:34:14.212Z,24.71
2016-09-19T07:35:13.549Z,24.81
2016-09-19T07:36:14.186Z,24.57
2016-09-19T07:37:13.854Z,24.69
2016-09-19T07:38:13.845Z,24.58
2016-09-19T07:39:13.845Z,24.69
2016-09-19T07:40:13.828Z,24.46
2016-09-19T07:41:13.829Z,24.39
2016-09-19T07:42:14.134Z,24.61
2016-09-19T07:43:13.817Z,24.87
2016-09-19T07:44:14.136Z,24.81
2016-09-19T07:45:14.116Z,25
2016-09-19T07:46:13.795Z,25.05
2016-09-19T07:47:14.105Z,24.87
2016-09-19T07:48:14.107Z,24.92
2016-09-19T07:49:13.884Z,24.8
2016-09-19T07:50:13.783Z,25
2016-09-19T07:51:13.820Z,24.27
2016-09-19T07:52:13.449Z,24.44
2016-09-19T07:53:14.183Z,24.93
2016-09-19T07:54:13.450Z,25.52
2016-09-19T07:55:13.768Z,25.73
2016-09-19T07:56:14.103Z,26.01
2016-09-19T07:57:13.757Z,26.7
2016-09-19T07:58:13.768Z,26.84
2016-09-19T07:59:13.754Z,26.42
2016-09-19T08:00:13.743Z,26.19
2016-09-19T08:01:13.426Z,26.86
2016-09-19T08:02:13.429Z,27.71
2016-09-19T08:03:13.751Z,27.97
2016-09-19T08:04:13.416Z,28.47
2016-09-19T08:05:13.802Z,28.79
2016-09-19T08:06:13.745Z,29.27
2016-09-19T08:07:13.736Z,29
2016-09-19T08:08:14.075Z,28.92
2016-09-19T08:09:13.428Z,29.22
2016-09-19T08:10:13.407Z,29.7
2016-09-19T08:11:14.069Z,29.88
2016-09-19T08:12:13.411Z,30.11
2016-09-19T08:13:13.432Z,30.23
2016-09-19T08:14:13.756Z,30.32
2016-09-19T08:15:14.069Z,30.26
2016-09-19T08:16:14.090Z,30.25
2016-09-19T08:17:13.741Z,30.33
2016-09-19T08:18:13.434Z,30.4
2016-09-19T08:19:14.187Z,30.66
2016-09-19T08:20:13.764Z,30.66
2016-09-19T08:21:13.753Z,30.2
2016-09-19T08:22:13.443Z,29.61
2016-09-19T08:23:13.763Z,29.79
2016-09-19T08:24:13.764Z,30.11
2016-09-19T08:25:14.131Z,29.66
2016-09-19T08:26:13.775Z,27.93
2016-09-19T08:27:13.763Z,27.81
2016-09-19T08:28:14.308Z,27.74
2016-09-19T08:29:13.777Z,26.45
2016-09-19T08:30:14.094Z,27.07
2016-09-19T08:31:13.440Z,27.69
2016-09-19T08:32:13.444Z,28.03
2016-09-19T08:33:13.781Z,27.33
2016-09-19T08:34:14.097Z,27.49
2016-09-19T08:35:13.786Z,28.13
2016-09-19T08:36:13.776Z,27.3
2016-09-19T08:37:13.768Z,27.78
2016-09-19T08:38:14.113Z,27.57
2016-09-19T08:39:14.113Z,28.31
2016-09-19T08:40:14.109Z,29.12
2016-09-19T08:41:14.098Z,29.64
2016-09-19T08:42:14.104Z,30.01
2016-09-19T08:43:14.097Z,30.39
2016-09-19T08:44:14.125Z,30.29
2016-09-19T08:45:13.793Z,30.43
2016-09-19T08:46:14.111Z,30.31
2016-09-19T08:47:13.475Z,30.2
2016-09-19T08:48:13.479Z,30.58
2016-09-19T08:49:14.177Z,30.66
2016-09-19T08:50:13.806Z,30.67
2016-09-19T08:51:14.169Z,30.68
2016-09-19T08:52:13.493Z,30.43
2016-09-19T08:53:14.126Z,30.48
2016-09-19T08:54:14.127Z,30.31
2016-09-19T08:55:14.130Z,30.08
2016-09-19T08:56:13.804Z,30.29
2016-09-19T08:57:13.835Z,30.39
2016-09-19T08:58:13.914Z,30.48
2016-09-19T08:59:13.810Z,30.25
2016-09-19T09:00:14.139Z,30.29
2016-09-19T09:01:13.513Z,29.57
2016-09-19T09:02:14.150Z,29.66
2016-09-19T09:03:14.152Z,29.84
2016-09-19T09:04:14.155Z,30.08
2016-09-19T09:05:13.844Z,30.11
2016-09-19T09:06:13.914Z,30.07
2016-09-19T09:07:14.172Z,30.26
2016-09-19T09:08:13.853Z,30.18
2016-09-19T09:09:14.268Z,29.94
2016-09-19T09:10:13.537Z,29.94
2016-09-19T09:11:13.868Z,29.79
2016-09-19T09:12:13.874Z,29.55
2016-09-19T09:13:14.178Z,29.83
2016-09-19T09:14:14.222Z,29.86
2016-09-19T09:15:14.179Z,30.07
2016-09-19T09:16:13.865Z,30.2
2016-09-19T09:17:14.223Z,29.91
2016-09-19T09:18:14.194Z,29.68
2016-09-19T09:19:14.195Z,30.13
2016-09-19T09:20:13.565Z,30.25
2016-09-19T09:21:14.204Z,30.36
2016-09-19T09:22:13.875Z,30.59
2016-09-19T09:23:13.554Z,30.63
2016-09-19T09:24:13.557Z,30.51
2016-09-19T09:25:13.935Z,30.66
2016-09-19T09:26:14.195Z,30.77
2016-09-19T09:27:14.213Z,30.63
2016-09-19T09:28:13.875Z,30.66
2016-09-19T09:29:14.015Z,30.61
2016-09-19T09:30:13.897Z,30.74
2016-09-19T09:31:13.570Z,30.82
2016-09-19T09:32:13.907Z,30.74
2016-09-19T09:33:14.233Z,30.59
2016-09-19T09:34:14.233Z,30.55
2016-09-19T09:35:14.217Z,30.67
2016-09-19T09:36:13.907Z,30.67
2016-09-19T09:37:13.916Z,30.54
2016-09-19T09:38:13.601Z,30.29
2016-09-19T09:39:14.285Z,30.17
2016-09-19T09:40:13.947Z,30.33
2016-09-19T09:41:13.608Z,30.32
2016-09-19T09:42:13.913Z,30.28
2016-09-19T09:43:13.959Z,30.36
2016-09-19T09:44:14.254Z,30.61
2016-09-19T09:45:13.930Z,30.61
2016-09-19T09:46:14.255Z,30.64
2016-09-19T09:47:13.929Z,30.11
2016-09-19T09:48:13.925Z,29.95
2016-09-19T09:49:13.610Z,30.17
2016-09-19T09:50:14.358Z,30.25
2016-09-19T09:51:13.924Z,30.26
2016-09-19T09:52:13.925Z,30.2
2016-09-19T09:53:13.661Z,30.1
2016-09-19T09:54:13.934Z,29.94
2016-09-19T09:55:13.939Z,29.89
2016-09-19T09:56:14.251Z,29.64
2016-09-19T09:57:14.265Z,29.83
2016-09-19T09:58:13.945Z,30.05
2016-09-19T09:59:14.245Z,30.21
2016-09-19T10:00:13.615Z,30.49
2016-09-19T10:01:13.932Z,30.4
2016-09-19T10:02:14.262Z,30.55
2016-09-19T10:03:13.935Z,30.49
2016-09-19T10:04:13.942Z,30.43
2016-09-19T10:05:13.945Z,30.4
2016-09-19T10:06:13.935Z,30.67
2016-09-19T10:07:13.617Z,30.76
2016-09-19T10:08:13.946Z,30.63
2016-09-19T10:09:13.944Z,30.21
2016-09-19T10:10:14.264Z,30.21
2016-09-19T10:11:13.934Z,30.21
2016-09-19T10:12:13.928Z,30.43
2016-09-19T10:13:13.924Z,30.51
2016-09-19T10:14:13.616Z,29.58
2016-09-19T10:15:13.976Z,28.38
2016-09-19T10:16:13.615Z,27.07
2016-09-19T10:17:14.010Z,27.41
2016-09-19T10:18:13.921Z,26.76
2016-09-19T10:19:14.326Z,26.82
2016-09-19T10:20:13.598Z,26.71
2016-09-19T10:21:14.249Z,27.07
2016-09-19T10:22:14.327Z,27.59
2016-09-19T10:23:14.227Z,27.98
2016-09-19T10:24:14.225Z,28.76
2016-09-19T10:25:14.238Z,27.88
2016-09-19T10:26:13.906Z,27.16
2016-09-19T10:27:13.895Z,27.31
2016-09-19T10:28:13.895Z,27.4
2016-09-19T10:29:14.218Z,27.64
2016-09-19T10:30:14.216Z,27.93
2016-09-19T10:31:13.617Z,28.03
2016-09-19T10:32:14.200Z,27.93
2016-09-19T10:33:14.191Z,27.82
2016-09-19T10:34:13.876Z,27.59
2016-09-19T10:35:13.867Z,27.23
2016-09-19T10:36:13.858Z,26.96
2016-09-19T10:37:13.879Z,26.86
2016-09-19T10:38:13.524Z,26.88
2016-09-19T10:39:13.856Z,26.91
2016-09-19T10:40:13.844Z,26.93
2016-09-19T10:41:13.845Z,26.89
2016-09-19T10:42:13.518Z,26.79
2016-09-19T10:43:14.155Z,26.84
2016-09-19T10:44:13.876Z,26.48
2016-09-19T10:45:13.516Z,26.39
2016-09-19T10:46:13.866Z,26.52
2016-09-19T10:47:13.809Z,26.57
2016-09-19T10:48:14.130Z,26.59
2016-09-19T10:49:14.125Z,26.3
2016-09-19T10:50:13.805Z,26.27
2016-09-19T10:51:13.469Z,26.22
2016-09-19T10:52:13.781Z,26.23
2016-09-19T10:53:13.776Z,25.95
2016-09-19T10:54:13.789Z,25.84
2016-09-19T10:55:14.086Z,25.88
2016-09-19T10:56:14.084Z,25.99
2016-09-19T10:57:13.757Z,25.84
2016-09-19T10:58:14.174Z,25.79
2016-09-19T10:59:13.737Z,25.69
2016-09-19T11:00:14.109Z,25.71
2016-09-19T11:01:13.714Z,25.73
2016-09-19T11:02:13.719Z,25.77
2016-09-19T11:04:14.025Z,25.71
2016-09-19T11:05:13.699Z,25.76
2016-09-19T11:06:13.703Z,25.74
2016-09-19T11:07:13.676Z,25.47
2016-09-19T11:08:14.000Z,25.48
2016-09-19T11:09:13.344Z,25.36
2016-09-19T11:10:13.970Z,25.29
2016-09-19T11:11:13.322Z,25
2016-09-19T11:12:13.324Z,25.03
2016-09-19T11:13:13.629Z,25.18
2016-09-19T11:14:13.644Z,25.14
2016-09-19T11:15:13.937Z,25.11
2016-09-19T11:16:13.294Z,25.1
2016-09-19T11:17:13.682Z,24.89
2016-09-19T11:18:13.294Z,24.93
2016-09-19T11:19:13.283Z,24.84
2016-09-19T11:20:13.584Z,25.05
2016-09-19T11:21:13.899Z,24.93
2016-09-19T11:22:13.582Z,24.58
2016-09-19T11:23:13.268Z,24.4
2016-09-19T11:24:13.864Z,24.65
2016-09-19T11:25:13.553Z,24.62
2016-09-19T11:26:13.851Z,24.7
2016-09-19T11:27:13.518Z,24.52
2016-09-19T11:28:13.850Z,24.4
2016-09-19T11:29:13.529Z,24.1
2016-09-19T11:30:13.506Z,24.1
2016-09-19T11:31:13.493Z,23.95
2016-09-19T11:32:13.866Z,24
2016-09-19T11:33:13.470Z,24
2016-09-19T11:34:13.463Z,23.84
2016-09-19T11:35:13.773Z,23.8
2016-09-19T11:36:13.442Z,23.88
2016-09-19T11:37:13.434Z,23.82
2016-09-19T11:38:13.432Z,23.77
2016-09-19T11:39:13.426Z,24.03
2016-09-19T11:40:13.853Z,23.99
2016-09-19T11:41:13.400Z,24
2016-09-19T11:42:13.392Z,24.02
2016-09-19T11:43:13.401Z,23.96
2016-09-19T11:44:13.053Z,23.99
2016-09-19T11:45:13.704Z,24.17
2016-09-19T11:46:13.684Z,24.19
2016-09-19T11:47:13.348Z,24.15
2016-09-19T11:48:13.671Z,24.24
2016-09-19T11:49:13.339Z,24.34
2016-09-19T11:50:13.713Z,24.32
2016-09-19T11:51:13.637Z,24.14
2016-09-19T11:52:13.319Z,24.17
2016-09-19T11:53:13.296Z,24.09
2016-09-19T11:54:13.613Z,24.15
2016-09-19T11:55:12.947Z,24.22
2016-09-19T11:56:13.279Z,24.15
2016-09-19T11:57:13.572Z,23.69
2016-09-19T11:58:13.270Z,23.77
2016-09-19T11:59:13.248Z,23.97
2016-09-19T12:00:13.550Z,23.55
2016-09-19T12:01:13.222Z,23.27
2016-09-19T12:02:13.502Z,23.44
2016-09-19T12:03:13.543Z,23.63
2016-09-19T12:04:13.211Z,23.75
2016-09-19T12:05:13.191Z,23.78
2016-09-19T12:06:13.533Z,23.97
2016-09-19T12:07:13.489Z,23.96
2016-09-19T12:08:13.169Z,23.97
2016-09-19T12:09:13.152Z,23.87
2016-09-19T12:10:12.845Z,24
2016-09-19T12:11:13.153Z,24.24
2016-09-19T12:12:13.122Z,24.42
2016-09-19T12:13:13.450Z,24.46
2016-09-19T12:14:13.126Z,24.61
2016-09-19T12:15:13.101Z,24.58
2016-09-19T12:16:13.414Z,24.44
2016-09-19T12:17:13.402Z,24.46
2016-09-19T12:18:13.092Z,24.52
2016-09-19T12:19:13.067Z,24.55
2016-09-19T12:20:13.384Z,24.71
2016-09-19T12:21:13.055Z,24.82
2016-09-19T12:22:13.045Z,24.84
2016-09-19T12:23:13.055Z,24.78
2016-09-19T12:24:13.032Z,24.49
2016-09-19T12:25:13.069Z,24.59
2016-09-19T12:26:13.345Z,24.55
2016-09-19T12:27:13.324Z,24.62
2016-09-19T12:28:12.662Z,24.58
2016-09-19T12:29:13.063Z,24.74
2016-09-19T12:30:12.976Z,24.8
2016-09-19T12:31:12.994Z,24.71
2016-09-19T12:32:13.291Z,24.77
2016-09-19T12:33:13.279Z,24.61
2016-09-19T12:34:12.934Z,24.7
2016-09-19T12:35:12.627Z,24.82
2016-09-19T12:36:12.913Z,24.57
2016-09-19T12:37:13.244Z,24.61
2016-09-19T12:38:13.217Z,24.51
2016-09-19T12:39:13.258Z,24.46
2016-09-19T12:40:13.203Z,24.57
2016-09-19T12:41:13.194Z,24.52
2016-09-19T12:42:12.874Z,24.39
2016-09-19T12:43:12.540Z,24.44
2016-09-19T12:44:13.180Z,23.99
2016-09-19T12:45:12.843Z,23.91
2016-09-19T12:46:12.877Z,24
2016-09-19T12:47:13.147Z,24.22
2016-09-19T12:48:12.813Z,24.28
2016-09-19T12:49:13.120Z,24.51
2016-09-19T12:50:12.799Z,24.8
2016-09-19T12:51:12.795Z,24.85
2016-09-19T12:52:13.102Z,24.71
2016-09-19T12:53:13.096Z,24.8
2016-09-19T12:54:12.764Z,24.77
2016-09-19T12:55:13.068Z,24.61
2016-09-19T12:56:13.063Z,24.74
2016-09-19T12:57:12.742Z,24.77